createdAt,value
2018-09-06T00:01:44.290Z,100799.97
2018-09-06T00:04:12.798Z,100788.42
2018-09-06T00:06:41.299Z,100796.25
2018-09-06T00:09:10.327Z,100786.73
2018-09-06T00:11:38.870Z,100784.88
2018-09-06T00:14:07.359Z,100779.73
2018-09-06T00:16:42.499Z,100779.05
2018-09-06T00:19:10.986Z,100776.59
2018-09-06T00:21:39.521Z,100775.99
2018-09-06T00:24:08.014Z,100773.82
2018-09-06T00:26:36.522Z,100770.48
2018-09-06T00:29:05.011Z,100765.11
2018-09-06T00:31:33.938Z,100759.75
2018-09-06T00:34:02.458Z,100758.87
2018-09-06T00:36:30.967Z,100754.88
2018-09-06T00:38:59.498Z,100754.42
2018-09-06T00:41:28.029Z,100754.17
2018-09-06T00:43:56.658Z,100754.45
2018-09-06T00:46:25.123Z,100748.21
2018-09-06T00:48:53.601Z,100749.61
2018-09-06T00:51:22.112Z,100749.73
2018-09-06T00:53:50.610Z,100750.14
2018-09-06T00:56:19.138Z,100746.14
2018-09-06T00:58:47.680Z,100743.37
2018-09-06T01:01:16.206Z,100742.57
2018-09-06T01:03:44.701Z,100743.39
2018-09-06T01:06:13.203Z,100735.95
2018-09-06T01:08:41.860Z,100738.66
2018-09-06T01:11:10.554Z,100736.83
2018-09-06T01:13:39.118Z,100738.34
2018-09-06T01:16:07.925Z,100734.77
2018-09-06T01:18:36.598Z,100736.18
2018-09-06T01:21:05.261Z,100736.09
2018-09-06T01:23:33.828Z,100734.73
2018-09-06T01:26:02.477Z,100729.38
2018-09-06T01:28:31.001Z,100724.95
2018-09-06T01:30:59.568Z,100717.05
2018-09-06T01:33:28.215Z,100718.94
2018-09-06T01:36:01.821Z,100722.83
2018-09-06T01:38:30.349Z,100713.40
2018-09-06T01:40:58.912Z,100723.49
2018-09-06T01:43:27.449Z,100727.98
2018-09-06T01:45:55.945Z,100722.70
2018-09-06T01:48:24.473Z,100726.70
2018-09-06T01:50:53.030Z,100722.41
2018-09-06T01:53:21.929Z,100732.48
2018-09-06T01:55:50.431Z,100728.67
2018-09-06T01:58:18.902Z,100725.05
2018-09-06T02:00:47.393Z,100724.17
2018-09-06T02:03:15.861Z,100718.75
2018-09-06T02:05:44.688Z,100717.14
2018-09-06T02:08:13.304Z,100711.94
2018-09-06T02:10:41.802Z,100712.55
2018-09-06T02:13:10.324Z,100710.55
2018-09-06T02:15:38.878Z,100711.17
2018-09-06T02:18:07.397Z,100739.16
2018-09-06T02:20:35.848Z,100736.86
2018-09-06T02:23:04.320Z,100742.33
2018-09-06T02:25:32.857Z,100720.20
2018-09-06T02:28:01.361Z,100733.91
2018-09-06T02:30:29.845Z,100724.94
2018-09-06T02:32:58.309Z,100709.59
2018-09-06T02:35:26.819Z,100705.67
2018-09-06T02:37:55.374Z,100710.61
2018-09-06T02:40:29.206Z,100713.02
2018-09-06T02:42:57.690Z,100706.30
2018-09-06T02:45:26.163Z,100707.02
2018-09-06T02:47:55.754Z,100699.36
2018-09-06T02:50:29.607Z,100690.35
2018-09-06T02:52:58.386Z,100693.34
2018-09-06T02:55:28.365Z,100703.14
2018-09-06T02:57:57.254Z,100699.38
2018-09-06T03:00:29.128Z,100687.69
2018-09-06T03:02:57.621Z,100670.09
2018-09-06T03:05:26.772Z,100681.53
2018-09-06T03:07:56.529Z,100687.64
2018-09-06T03:10:26.260Z,100680.05
2018-09-06T03:12:54.764Z,100686.25
2018-09-06T03:15:23.464Z,100688.34
2018-09-06T03:17:51.945Z,100676.62
2018-09-06T03:20:20.410Z,100666.52
2018-09-06T03:22:48.948Z,100672.12
2018-09-06T03:25:17.442Z,100676.61
2018-09-06T03:27:45.952Z,100675.10
2018-09-06T03:30:14.519Z,100671.20
2018-09-06T03:32:43.011Z,100671.81
2018-09-06T03:35:11.517Z,100669.50
2018-09-06T03:37:40.153Z,100663.09
2018-09-06T03:40:08.649Z,100660.30
2018-09-06T03:42:37.152Z,100663.92
2018-09-06T03:45:05.675Z,100659.92
2018-09-06T03:47:34.214Z,100658.41
2018-09-06T03:50:02.714Z,100659.42
2018-09-06T03:52:31.218Z,100659.32
2018-09-06T03:54:59.823Z,100649.69
2018-09-06T03:57:28.352Z,100648.16
2018-09-06T03:59:57.288Z,100648.17
2018-09-06T04:02:25.790Z,100640.17
2018-09-06T04:04:54.297Z,100637.86
2018-09-06T04:07:22.867Z,100639.00
2018-09-06T04:09:51.422Z,100634.33
2018-09-06T04:12:19.910Z,100638.70
2018-09-06T04:14:48.441Z,100636.99
2018-09-06T04:17:16.996Z,100641.29
2018-09-06T04:19:45.535Z,100634.63
2018-09-06T04:22:14.043Z,100638.55
2018-09-06T04:24:42.518Z,100640.27
2018-09-06T04:27:11.086Z,100643.67
2018-09-06T04:29:39.608Z,100639.36
2018-09-06T04:32:08.206Z,100645.73
2018-09-06T04:34:36.750Z,100640.69
2018-09-06T04:37:05.607Z,100639.30
2018-09-06T04:39:34.171Z,100643.58
2018-09-06T04:42:02.693Z,100639.08
2018-09-06T04:44:31.304Z,100637.44
2018-09-06T04:46:59.761Z,100636.27
2018-09-06T04:49:28.238Z,100646.02
2018-09-06T04:51:56.767Z,100633.44
2018-09-06T04:54:25.347Z,100634.77
2018-09-06T04:56:53.867Z,100638.45
2018-09-06T04:59:22.342Z,100635.28
2018-09-06T05:01:50.855Z,100632.10
2018-09-06T05:04:19.403Z,100629.86
2018-09-06T05:06:48.890Z,100629.03
2018-09-06T05:09:17.381Z,100630.96
2018-09-06T05:11:45.921Z,100638.45
2018-09-06T05:14:14.485Z,100646.86
2018-09-06T05:16:43.031Z,100640.28
2018-09-06T05:19:11.526Z,100645.75
2018-09-06T05:21:40.061Z,100645.08
2018-09-06T05:24:08.608Z,100643.42
2018-09-06T05:26:37.155Z,100637.19
2018-09-06T05:29:05.790Z,100635.52
2018-09-06T05:31:34.316Z,100636.42
2018-09-06T05:34:02.849Z,100636.98
2018-09-06T05:36:31.457Z,100635.72
2018-09-06T05:39:00.071Z,100638.23
2018-09-06T05:41:28.608Z,100638.17
2018-09-06T05:43:57.148Z,100636.27
2018-09-06T05:46:25.765Z,100641.50
2018-09-06T05:48:54.363Z,100639.30
2018-09-06T05:51:22.881Z,100642.93
2018-09-06T05:53:51.402Z,100624.81
2018-09-06T05:56:19.919Z,100631.03
2018-09-06T05:58:48.452Z,100631.14
2018-09-06T06:01:17.339Z,100633.63
2018-09-06T06:03:45.963Z,100632.39
2018-09-06T06:06:14.846Z,100627.42
2018-09-06T06:08:49.329Z,100631.05
2018-09-06T06:11:18.554Z,100632.21
2018-09-06T06:13:47.080Z,100625.67
2018-09-06T06:16:15.606Z,100628.43
2018-09-06T06:18:44.226Z,100624.02
2018-09-06T06:21:12.931Z,100628.00
2018-09-06T06:23:41.502Z,100628.43
2018-09-06T06:26:10.091Z,100628.29
2018-09-06T06:28:38.624Z,100629.05
2018-09-06T06:31:07.183Z,100624.30
2018-09-06T06:33:36.301Z,100625.08
2018-09-06T06:36:04.860Z,100621.19
2018-09-06T06:38:33.434Z,100619.97
2018-09-06T06:41:01.959Z,100621.66
2018-09-06T06:43:30.550Z,100620.01
2018-09-06T06:45:59.090Z,100624.53
2018-09-06T06:48:27.627Z,100630.98
2018-09-06T06:50:56.177Z,100636.89
2018-09-06T06:53:24.729Z,100645.19
2018-09-06T06:55:53.577Z,100650.05
2018-09-06T06:58:22.083Z,100651.39
2018-09-06T07:00:50.634Z,100644.79
2018-09-06T07:03:19.155Z,100653.31
2018-09-06T07:05:47.642Z,100650.45
2018-09-06T07:08:16.431Z,100651.34
2018-09-06T07:10:44.921Z,100650.64
2018-09-06T07:13:13.462Z,100646.42
2018-09-06T07:15:42.086Z,100644.81
2018-09-06T07:18:10.726Z,100646.67
2018-09-06T07:20:39.222Z,100642.98
2018-09-06T07:23:07.733Z,100646.16
2018-09-06T07:25:36.231Z,100644.16
2018-09-06T07:28:04.729Z,100645.36
2018-09-06T07:30:33.216Z,100649.66
2018-09-06T07:33:01.737Z,100646.06
2018-09-06T07:35:30.220Z,100646.20
2018-09-06T07:37:59.101Z,100644.00
2018-09-06T07:40:27.655Z,100643.67
2018-09-06T07:42:56.175Z,100648.75
2018-09-06T07:45:24.705Z,100647.41
2018-09-06T07:47:53.674Z,100647.88
2018-09-06T07:50:22.985Z,100647.75
2018-09-06T07:52:51.552Z,100642.76
2018-09-06T07:55:21.619Z,100639.41
2018-09-06T07:57:50.222Z,100637.52
2018-09-06T08:00:18.771Z,100634.11
2018-09-06T08:02:47.293Z,100632.84
2018-09-06T08:05:15.820Z,100631.44
2018-09-06T08:07:44.833Z,100625.78
2018-09-06T08:10:16.322Z,100624.38
2018-09-06T08:12:45.576Z,100624.89
2018-09-06T08:15:15.802Z,100623.23
2018-09-06T08:17:46.040Z,100623.33
2018-09-06T08:20:14.779Z,100621.20
2018-09-06T08:22:43.433Z,100613.91
2018-09-06T08:25:11.966Z,100610.81
2018-09-06T08:27:40.573Z,100605.64
2018-09-06T08:30:09.426Z,100606.16
2018-09-06T08:32:37.918Z,100600.06
2018-09-06T08:35:06.457Z,100591.70
2018-09-06T08:37:35.031Z,100592.96
2018-09-06T08:40:03.570Z,100591.47
2018-09-06T08:42:33.043Z,100593.04
2018-09-06T08:45:01.591Z,100590.32
2018-09-06T08:47:30.153Z,100586.03
2018-09-06T08:49:58.673Z,100584.52
2018-09-06T08:52:27.378Z,100586.48
2018-09-06T08:54:56.264Z,100591.87
2018-09-06T08:57:24.807Z,100585.75
2018-09-06T08:59:53.334Z,100577.03
2018-09-06T09:02:21.954Z,100575.17
2018-09-06T09:04:50.431Z,100580.78
2018-09-06T09:07:19.021Z,100570.88
2018-09-06T09:09:47.628Z,100559.01
2018-09-06T09:12:22.938Z,100556.23
2018-09-06T09:14:51.433Z,100555.57
2018-09-06T09:17:22.752Z,100560.33
2018-09-06T09:19:53.071Z,100547.39
2018-09-06T09:22:22.095Z,100558.75
2018-09-06T09:24:50.600Z,100557.23
2018-09-06T09:27:19.141Z,100555.78
2018-09-06T09:29:47.647Z,100550.04
2018-09-06T09:32:16.234Z,100550.55
2018-09-06T09:34:45.197Z,100557.91
2018-09-06T09:37:13.805Z,100552.41
2018-09-06T09:39:42.836Z,100547.61
2018-09-06T09:42:12.034Z,100552.69
2018-09-06T09:44:41.002Z,100548.37
2018-09-06T09:49:37.526Z,100557.31
2018-09-06T09:52:06.081Z,100561.25
2018-09-06T09:54:34.614Z,100565.14
2018-09-06T09:57:03.318Z,100561.70
2018-09-06T09:59:32.753Z,100567.58
2018-09-06T10:02:06.630Z,100562.40
2018-09-06T10:05:38.743Z,100555.50
2018-09-06T10:08:13.970Z,100556.16
2018-09-06T10:10:42.657Z,100561.75
2018-09-06T10:13:12.248Z,100559.22
2018-09-06T10:15:41.362Z,100563.33
2018-09-06T10:18:10.439Z,100560.14
2018-09-06T10:20:39.292Z,100568.11
2018-09-06T10:23:08.034Z,100573.96
2018-09-06T10:25:36.593Z,100570.51
2018-09-06T10:28:05.227Z,100572.37
2018-09-06T10:30:33.778Z,100572.44
2018-09-06T10:33:02.625Z,100580.26
2018-09-06T10:35:31.226Z,100579.41
2018-09-06T10:37:59.682Z,100576.27
2018-09-06T10:40:28.254Z,100578.11
2018-09-06T10:42:56.753Z,100576.84
2018-09-06T10:45:25.734Z,100574.84
2018-09-06T10:47:54.317Z,100575.09
2018-09-06T10:50:22.825Z,100570.16
2018-09-06T10:52:51.289Z,100570.91
2018-09-06T10:55:19.802Z,100575.41
2018-09-06T10:57:48.356Z,100567.31
2018-09-06T11:00:16.926Z,100568.36
2018-09-06T11:02:45.737Z,100569.39
2018-09-06T11:05:14.290Z,100567.61
2018-09-06T11:07:42.851Z,100567.70
2018-09-06T11:10:12.115Z,100572.77
2018-09-06T11:12:40.658Z,100568.65
2018-09-06T11:15:09.256Z,100564.47
2018-09-06T11:17:37.738Z,100567.02
2018-09-06T11:20:06.419Z,100567.00
2018-09-06T11:22:35.208Z,100564.86
2018-09-06T11:25:03.429Z,100561.64
2018-09-06T11:27:31.998Z,100571.63
2018-09-06T11:30:00.509Z,100560.62
2018-09-06T11:32:29.170Z,100559.55
2018-09-06T11:34:57.738Z,100556.14
2018-09-06T11:37:26.235Z,100558.11
2018-09-06T11:39:55.161Z,100553.95
2018-09-06T11:42:23.700Z,100549.60
2018-09-06T11:44:52.201Z,100550.50
2018-09-06T11:47:20.811Z,100556.27
2018-09-06T11:49:49.294Z,100551.81
2018-09-06T11:52:17.933Z,100550.16
2018-09-06T11:54:46.482Z,100546.08
2018-09-06T11:57:15.034Z,100545.13
2018-09-06T11:59:43.579Z,100549.72
2018-09-06T12:02:12.221Z,100549.44
2018-09-06T12:04:40.714Z,100546.98
2018-09-06T12:07:09.233Z,100545.30
2018-09-06T12:09:37.819Z,100545.41
2018-09-06T12:12:06.932Z,100543.09
2018-09-06T12:14:35.539Z,100546.09
2018-09-06T12:17:04.094Z,100539.06
2018-09-06T12:19:32.676Z,100542.62
2018-09-06T12:22:01.783Z,100540.77
2018-09-06T12:24:30.357Z,100537.92
2018-09-06T12:26:58.916Z,100535.86
2018-09-06T12:29:27.689Z,100533.60
2018-09-06T12:31:56.310Z,100533.82
2018-09-06T12:34:24.836Z,100529.93
2018-09-06T12:36:53.372Z,100529.42
2018-09-06T12:39:21.945Z,100525.89
2018-09-06T12:41:50.550Z,100525.48
2018-09-06T12:44:19.042Z,100531.64
2018-09-06T12:46:47.595Z,100530.07
2018-09-06T12:49:16.738Z,100524.25
2018-09-06T12:51:45.331Z,100527.89
2018-09-06T12:54:13.846Z,100525.23
2018-09-06T12:56:42.446Z,100524.81
2018-09-06T12:59:10.933Z,100521.08
2018-09-06T13:01:39.472Z,100523.32
2018-09-06T13:04:07.975Z,100518.25
2018-09-06T13:06:36.460Z,100515.05
2018-09-06T13:09:06.223Z,100524.47
2018-09-06T13:11:35.019Z,100519.92
2018-09-06T13:14:03.606Z,100518.30
2018-09-06T13:16:32.163Z,100513.18
2018-09-06T13:19:00.835Z,100506.16
2018-09-06T13:21:29.463Z,100512.35
2018-09-06T13:23:58.004Z,100502.64
2018-09-06T13:26:26.505Z,100504.20
2018-09-06T13:28:55.058Z,100500.98
2018-09-06T13:31:24.370Z,100499.29
2018-09-06T13:33:52.874Z,100491.76
2018-09-06T13:36:21.439Z,100496.62
2018-09-06T13:38:50.330Z,100498.02
2018-09-06T13:41:18.862Z,100487.87
2018-09-06T13:43:47.399Z,100487.98
2018-09-06T13:46:15.982Z,100480.56
2018-09-06T13:48:44.669Z,100477.63
2018-09-06T13:51:13.286Z,100473.27
2018-09-06T13:53:41.831Z,100464.28
2018-09-06T13:56:10.462Z,100466.67
2018-09-06T13:58:39.104Z,100457.56
2018-09-06T14:01:07.979Z,100457.48
2018-09-06T14:03:36.461Z,100451.83
2018-09-06T14:06:04.983Z,100450.18
2018-09-06T14:08:33.469Z,100445.34
2018-09-06T14:11:02.005Z,100438.13
2018-09-06T14:13:30.509Z,100434.39
2018-09-06T14:15:59.122Z,100435.77
2018-09-06T14:18:27.930Z,100430.98
2018-09-06T14:20:56.491Z,100433.48
2018-09-06T14:23:25.017Z,100432.09
2018-09-06T14:25:53.574Z,100428.25
2018-09-06T14:28:22.064Z,100430.45
2018-09-06T14:30:50.629Z,100426.38
2018-09-06T14:33:19.150Z,100430.34
2018-09-06T14:35:47.661Z,100432.83
2018-09-06T14:38:16.349Z,100435.55
2018-09-06T14:40:44.809Z,100428.89
2018-09-06T14:43:13.354Z,100433.42
2018-09-06T14:45:41.868Z,100430.77
2018-09-06T14:48:10.415Z,100437.25
2018-09-06T14:50:38.942Z,100431.03
2018-09-06T14:53:07.504Z,100429.94
2018-09-06T14:55:36.111Z,100427.54
2018-09-06T15:00:32.229Z,100424.83
2018-09-06T15:03:00.806Z,100420.44
2018-09-06T15:05:29.330Z,100408.87
2018-09-06T15:07:57.852Z,100410.61
2018-09-06T15:10:26.398Z,100405.16
2018-09-06T15:12:54.899Z,100413.98
2018-09-06T15:15:23.453Z,100417.52
2018-09-06T15:17:52.042Z,100408.60
2018-09-06T15:20:20.798Z,100406.52
2018-09-06T15:22:49.309Z,100399.68
2018-09-06T15:25:17.854Z,100402.97
2018-09-06T15:27:46.772Z,100397.35
2018-09-06T15:30:15.303Z,100394.92
2018-09-06T15:32:43.837Z,100396.30
2018-09-06T15:35:12.344Z,100395.52
2018-09-06T15:37:40.901Z,100397.88
2018-09-06T15:40:09.445Z,100398.91
2018-09-06T15:42:37.962Z,100400.70
2018-09-06T15:45:06.463Z,100398.77
2018-09-06T15:47:35.010Z,100395.31
2018-09-06T15:50:03.552Z,100387.77
2018-09-06T15:52:32.102Z,100384.67
2018-09-06T15:55:00.605Z,100377.94
2018-09-06T15:57:29.112Z,100385.42
2018-09-06T15:59:57.651Z,100379.42
2018-09-06T16:02:26.130Z,100377.28
2018-09-06T16:04:54.625Z,100381.28
2018-09-06T16:07:25.293Z,100382.56
2018-09-06T16:09:53.809Z,100379.80
2018-09-06T16:12:22.782Z,100377.72
2018-09-06T16:14:51.242Z,100375.14
2018-09-06T16:17:21.536Z,100371.38
2018-09-06T16:19:50.117Z,100368.40
2018-09-06T16:22:19.066Z,100367.17
2018-09-06T16:24:47.604Z,100365.94
2018-09-06T16:27:16.159Z,100367.19
2018-09-06T16:29:44.763Z,100370.81
2018-09-06T16:32:13.284Z,100362.62
2018-09-06T16:34:41.951Z,100364.14
2018-09-06T16:37:10.566Z,100360.67
2018-09-06T16:39:39.034Z,100360.66
2018-09-06T16:42:11.656Z,100363.37
2018-09-06T16:44:40.538Z,100353.47
2018-09-06T16:47:09.035Z,100358.19
2018-09-06T16:49:37.570Z,100363.21
2018-09-06T16:52:06.170Z,100365.30
2018-09-06T16:54:36.305Z,100373.49
2018-09-06T16:57:05.365Z,100376.67
2018-09-06T16:59:33.882Z,100382.48
2018-09-06T17:02:02.389Z,100381.62
2018-09-06T17:04:30.995Z,100387.59
2018-09-06T17:07:00.067Z,100382.53
2018-09-06T17:09:28.503Z,100386.04
2018-09-06T17:11:57.185Z,100394.73
2018-09-06T17:14:25.746Z,100396.37
2018-09-06T17:16:54.448Z,100392.72
2018-09-06T17:19:23.039Z,100392.16
2018-09-06T17:21:51.662Z,100398.77
2018-09-06T17:24:20.185Z,100400.89
2018-09-06T17:26:48.863Z,100404.02
2018-09-06T17:29:17.540Z,100414.09
2018-09-06T17:31:46.083Z,100413.12
2018-09-06T17:34:14.813Z,100400.95
2018-09-06T17:36:43.942Z,100405.47
2018-09-06T17:39:13.616Z,100405.22
2018-09-06T17:41:42.034Z,100401.92
2018-09-06T17:44:13.365Z,100400.43
2018-09-06T17:46:42.393Z,100399.70
2018-09-06T17:49:11.177Z,100399.89
2018-09-06T17:51:40.094Z,100405.59
2018-09-06T17:54:08.715Z,100406.89
2018-09-06T17:56:37.309Z,100410.06
2018-09-06T17:59:06.043Z,100408.23
2018-09-06T18:01:37.379Z,100408.63
2018-09-06T18:04:06.268Z,100412.16
2018-09-06T18:06:34.774Z,100416.80
2018-09-06T18:09:05.187Z,100413.13
2018-09-06T18:11:33.792Z,100407.69
2018-09-06T18:14:02.330Z,100411.36
2018-09-06T18:16:30.811Z,100403.79
2018-09-06T18:18:59.517Z,100400.72
2018-09-06T18:21:28.101Z,100404.59
2018-09-06T18:23:57.359Z,100401.34
2018-09-06T18:26:32.625Z,100405.42
2018-09-06T18:29:01.245Z,100411.34
2018-09-06T18:31:30.008Z,100414.35
2018-09-06T18:33:58.518Z,100411.68
2018-09-06T18:36:27.191Z,100414.73
2018-09-06T18:38:55.853Z,100416.16
2018-09-06T18:41:24.439Z,100407.46
2018-09-06T18:43:52.985Z,100419.27
2018-09-06T18:46:21.505Z,100411.52
2018-09-06T18:48:50.033Z,100411.75
2018-09-06T18:51:18.571Z,100415.60
2018-09-06T18:53:47.226Z,100415.33
2018-09-06T18:56:15.926Z,100419.37
2018-09-06T18:58:44.562Z,100428.72
2018-09-06T19:01:13.130Z,100421.83
2018-09-06T19:03:42.095Z,100422.00
2018-09-06T19:06:10.617Z,100431.73
2018-09-06T19:08:39.230Z,100429.71
2018-09-06T19:11:07.918Z,100434.30
2018-09-06T19:13:36.404Z,100438.78
2018-09-06T19:16:04.944Z,100438.61
2018-09-06T19:18:33.528Z,100434.98
2018-09-06T19:21:02.271Z,100434.13
2018-09-06T19:23:30.836Z,100441.95
2018-09-06T19:25:59.590Z,100440.46
2018-09-06T19:28:28.663Z,100443.74
2018-09-06T19:30:57.145Z,100439.84
2018-09-06T19:33:25.642Z,100447.25
2018-09-06T19:35:54.211Z,100437.73
2018-09-06T19:38:22.726Z,100440.84
2018-09-06T19:40:51.246Z,100438.45
2018-09-06T19:43:19.860Z,100437.11
2018-09-06T19:45:48.811Z,100441.11
2018-09-06T19:48:17.305Z,100438.00
2018-09-06T19:50:46.432Z,100432.03
2018-09-06T19:53:14.970Z,100433.54
2018-09-06T19:55:43.484Z,100430.94
2018-09-06T19:58:12.099Z,100434.64
2018-09-06T20:00:40.702Z,100437.44
2018-09-06T20:03:09.266Z,100441.22
2018-09-06T20:05:37.770Z,100441.48
2018-09-06T20:08:06.662Z,100443.41
2018-09-06T20:13:09.932Z,100443.41
2018-09-06T20:15:38.585Z,100443.24
2018-09-06T20:18:07.117Z,100438.82
2018-09-06T20:20:35.618Z,100444.05
2018-09-06T20:23:04.130Z,100439.70
2018-09-06T20:25:32.662Z,100432.63
2018-09-06T20:28:01.196Z,100434.67
2018-09-06T20:30:29.640Z,100436.98
2018-09-06T20:32:58.994Z,100440.35
2018-09-06T20:35:27.517Z,100434.36
2018-09-06T20:37:56.042Z,100440.91
2018-09-06T20:40:24.966Z,100443.70
2018-09-06T20:42:53.632Z,100444.05
2018-09-06T20:45:22.113Z,100441.03
2018-09-06T20:47:50.710Z,100440.37
2018-09-06T20:50:19.303Z,100451.55
2018-09-06T20:52:47.906Z,100443.94
2018-09-06T20:55:16.408Z,100438.38
2018-09-06T20:57:44.980Z,100445.86
2018-09-06T21:00:13.458Z,100441.41
2018-09-06T21:02:41.947Z,100445.75
2018-09-06T21:05:10.509Z,100442.60
2018-09-06T21:07:39.161Z,100440.66
2018-09-06T21:10:07.688Z,100438.10
2018-09-06T21:12:36.131Z,100440.49
2018-09-06T21:15:04.652Z,100443.36
2018-09-06T21:17:33.238Z,100445.87
2018-09-06T21:20:01.746Z,100444.77
2018-09-06T21:22:30.244Z,100444.53
2018-09-06T21:24:58.729Z,100440.30
2018-09-06T21:27:27.387Z,100443.83
2018-09-06T21:29:56.052Z,100441.90
2018-09-06T21:32:24.636Z,100447.83
2018-09-06T21:34:53.205Z,100444.56
2018-09-06T21:37:21.675Z,100443.47
2018-09-06T21:39:50.226Z,100449.48
2018-09-06T21:42:18.704Z,100448.22
2018-09-06T21:44:47.351Z,100447.82
2018-09-06T21:47:15.930Z,100460.14
2018-09-06T21:49:44.465Z,100456.42
2018-09-06T21:52:13.061Z,100456.53
2018-09-06T21:54:41.613Z,100451.59
2018-09-06T21:57:10.137Z,100451.55
2018-09-06T21:59:38.636Z,100449.55
2018-09-06T22:02:07.240Z,100455.55
2018-09-06T22:04:35.875Z,100450.50
2018-09-06T22:07:04.353Z,100448.06
2018-09-06T22:09:32.871Z,100450.50
2018-09-06T22:12:01.362Z,100448.30
2018-09-06T22:14:29.956Z,100453.52
2018-09-06T22:16:58.497Z,100449.05
2018-09-06T22:19:27.044Z,100445.62
2018-09-06T22:21:55.570Z,100446.24
2018-09-06T22:24:24.174Z,100445.53
2018-09-06T22:26:52.687Z,100441.87
2018-09-06T22:29:21.211Z,100441.61
2018-09-06T22:31:50.344Z,100439.20
2018-09-06T22:34:18.884Z,100434.71
2018-09-06T22:36:47.382Z,100438.86
2018-09-06T22:39:15.902Z,100443.45
2018-09-06T22:41:44.440Z,100436.89
2018-09-06T22:44:12.994Z,100434.73
2018-09-06T22:46:41.535Z,100440.89
2018-09-06T22:49:10.041Z,100443.84
2018-09-06T22:51:38.621Z,100441.23
2018-09-06T22:54:07.160Z,100437.41
2018-09-06T22:56:36.266Z,100446.22
2018-09-06T22:59:05.220Z,100450.72
2018-09-06T23:01:33.797Z,100447.47
2018-09-06T23:04:02.375Z,100444.52
2018-09-06T23:06:31.048Z,100443.19
2018-09-06T23:08:59.624Z,100440.67
2018-09-06T23:11:28.581Z,100438.75
2018-09-06T23:13:57.093Z,100433.42
2018-09-06T23:16:25.711Z,100437.19
2018-09-06T23:18:55.835Z,100433.14
2018-09-06T23:21:24.341Z,100429.42
2018-09-06T23:23:52.814Z,100423.09
2018-09-06T23:26:21.702Z,100432.77
2018-09-06T23:28:50.202Z,100433.42
2018-09-06T23:31:18.826Z,100440.16
2018-09-06T23:33:47.361Z,100436.17
2018-09-06T23:36:15.859Z,100433.42
2018-09-06T23:38:44.350Z,100431.72
2018-09-06T23:41:12.938Z,100430.67
2018-09-06T23:43:41.527Z,100431.34
2018-09-06T23:46:10.065Z,100430.15
2018-09-06T23:48:38.709Z,100424.27
2018-09-06T23:51:07.536Z,100424.09
2018-09-06T23:53:36.042Z,100420.30
2018-09-06T23:56:04.554Z,100420.41
2018-09-06T23:58:33.077Z,100422.27
